Latest Weather Observations for Canterbury

IDN60901

Issued at 9:05 pm EDT Saturday 22 November 2014 (issued every 10 minutes, with the page automatically refreshed every 10 minutes)

About weather observations | Map of Sydney area stations | Latest observations for Sydney area | Other Formats
Station Details ID: 066194 Name: CANTERBURY RACECOURSE AWS Lat: -33.91 Lon: 151.11 Height: 3.0 m
Data from the previous 72 hours. | See also: Recent months at Canterbury
Date/Time
EDT
Tmp

°C
App
Tmp
°C
Dew
Point
°C
Rel
Hum
%
Delta-T

°C
Wind Press
QNH
hPa
Press
MSL
hPa
Rain
since
9 am
mm
Dir
 
Spd
km/h
Gust
km/h
Spd
kts
Gust
kts
22/09:00pm 20.5 21.1 17.7 84 1.7 NE 11 15 6 8 - - 0.0
22/08:30pm 20.4 21.6 17.4 83 1.8 NE 7 11 4 6 - - 0.0
22/08:00pm 20.5 20.8 17.1 81 2.1 NE 11 17 6 9 - - 0.0
22/07:30pm 20.6 20.1 17.0 80 2.2 NE 15 22 8 12 - - 0.0
22/07:00pm 21.2 20.7 17.0 77 2.6 NE 15 20 8 11 - - 0.0
22/06:30pm 21.6 20.6 16.6 73 3.0 E 17 24 9 13 - - 0.0
22/06:00pm 21.9 20.5 16.6 72 3.2 E 19 24 10 13 - - 0.0
22/05:30pm 23.1 21.6 16.2 65 4.2 E 19 24 10 13 - - 0.0
22/05:00pm 23.3 21.8 16.4 65 4.2 ESE 19 22 10 12 - - 0.0
22/04:30pm 23.7 22.2 15.2 59 5.1 ESE 17 26 9 14 - - 0.0
22/04:00pm 24.2 22.1 15.1 56 5.4 E 20 26 11 14 - - 0.0
22/03:30pm 24.3 22.2 15.2 57 5.5 ESE 20 28 11 15 - - 0.0
22/03:00pm 25.3 23.4 15.3 54 6.0 E 19 26 10 14 - - 0.0
22/02:30pm 25.3 23.3 15.0 53 6.2 ESE 19 28 10 15 - - 0.0
22/02:00pm 25.2 22.5 15.5 55 5.9 ESE 24 32 13 17 - - 0.0
22/01:30pm 25.6 23.7 15.3 53 6.2 ESE 19 26 10 14 - - 0.0
22/01:00pm 25.6 23.4 15.0 52 6.4 ESE 20 30 11 16 - - 0.0
22/12:30pm 26.0 25.5 14.8 50 6.7 ESE 11 20 6 11 - - 0.0
22/12:00pm 25.3 25.4 13.8 49 6.8 SE 6 15 3 8 - - 0.0
22/11:30am 24.0 24.2 14.7 56 5.5 NW 7 15 4 8 - - 0.0
22/11:00am 23.9 23.6 14.3 55 5.7 NNE 9 15 5 8 - - 0.0
22/10:30am 23.2 23.0 13.7 55 5.5 E 7 26 4 14 - - 0.0
22/10:00am 21.9 21.0 12.7 56 5.2 SSE 9 19 5 10 - - 0.0
22/09:30am 21.8 21.4 12.4 55 5.3 ESE 6 15 3 8 - - 0.0
22/09:00am 22.1 22.0 14.0 60 4.7 SE 7 17 4 9 - - 0.0
22/08:30am 21.7 19.2 12.3 55 5.3 E 17 20 9 11 - - 0.0
22/08:00am 20.0 19.5 13.9 68 3.5 SE 9 13 5 7 - - 0.0
22/07:30am 20.1 19.7 14.0 68 3.5 S 9 17 5 9 - - 0.0
22/07:00am 19.4 19.7 14.9 75 2.6 SSE 7 11 4 6 - - 0.0
22/06:30am 18.4 18.7 14.5 78 2.3 SSW 6 9 3 5 - - 0.0
22/06:00am 18.2 18.2 14.1 77 2.3 SSE 7 11 4 6 - - 0.0
22/05:30am 18.3 18.5 14.6 79 2.1 S 7 11 4 6 - - 0.0
22/05:00am 18.4 18.5 14.5 78 2.3 S 7 11 4 6 - - 0.0
22/04:30am 18.6 18.3 14.5 77 2.4 S 9 13 5 7 - - 0.0
22/04:00am 18.8 18.8 15.1 79 2.2 S 9 13 5 7 - - 0.0
22/03:30am 18.9 18.7 14.6 76 2.5 S 9 13 5 7 - - 0.0
22/03:00am 19.2 18.8 15.1 77 2.4 S 11 17 6 9 - - 0.0
22/02:30am 19.7 18.5 15.1 75 2.7 S 15 22 8 12 - - 0.0
22/02:00am 19.7 18.9 15.1 75 2.7 S 13 20 7 11 - - 0.0
22/01:30am 19.8 19.0 15.2 75 2.7 S 13 22 7 12 - - 0.0
22/01:00am 20.0 19.0 15.6 76 2.6 S 15 24 8 13 - - 0.0
22/12:30am 20.0 18.5 15.4 75 2.7 S 17 28 9 15 - - 0.0
22/12:00am 20.1 18.3 15.5 75 2.7 S 19 30 10 16 - - 0.0
 
Date/Time
EDT
Tmp

°C
App
Tmp
°C
Dew
Point
°C
Rel
Hum
%
Delta-T

°C
Wind Press
QNH
hPa
Press
MSL
hPa
Rain
since
9 am
mm
Dir
 
Spd
km/h
Gust
km/h
Spd
kts
Gust
kts
21/11:30pm 20.2 18.5 15.8 76 2.6 S 19 39 10 21 - - 0.0
21/11:00pm 20.5 18.4 16.3 77 2.5 S 22 37 12 20 - - 0.0
21/10:30pm 20.6 19.2 16.6 78 2.4 SSE 19 35 10 19 - - 0.0
21/10:00pm 20.7 17.7 16.7 78 2.4 SSE 28 43 15 23 - - 0.0
21/09:30pm 20.9 18.5 17.3 80 2.2 S 26 41 14 22 - - 0.0
21/09:07pm 21.1 18.4 17.5 80 2.2 SSE 28 46 15 25 - - 0.0
21/09:00pm 21.1 17.9 17.3 79 2.3 SSE 30 46 16 25 - - 0.0
21/08:31pm 21.6 18.7 17.0 75 2.8 SSE 28 46 15 25 - - 0.0
21/08:30pm 21.6 18.7 17.0 75 2.8 SSE 28 46 15 25 - - 0.0
21/08:00pm 22.0 18.8 16.3 70 3.4 SSE 28 50 15 27 - - 0.0
21/07:57pm 22.1 18.9 16.4 70 3.5 SSE 28 50 15 27 - - 0.0
21/07:30pm 22.5 20.0 16.1 67 3.9 SSE 24 39 13 21 - - 0.0
21/07:00pm 22.9 20.4 17.1 70 3.6 SSE 26 41 14 22 - - 0.0
21/06:47pm 23.1 20.3 17.3 70 3.6 SSE 28 48 15 26 - - 0.0
21/06:30pm 23.7 20.9 18.1 71 3.5 SSE 30 46 16 25 - - 0.0
21/06:07pm 24.5 22.6 19.3 73 3.3 SSE 28 46 15 25 - - 0.0
21/06:06pm 24.4 22.6 19.5 74 3.1 SSE 28 46 15 25 - - 0.0
21/06:00pm 24.9 22.5 19.0 69 3.8 SSE 30 46 16 25 - - 0.0
21/05:51pm 25.6 23.5 19.0 67 4.2 SSE 28 44 15 24 - - 0.0
21/05:30pm 27.4 27.1 19.2 61 5.3 SSE 19 24 10 13 - - 0.0
21/05:00pm 28.2 28.0 19.4 59 5.7 SE 19 26 10 14 - - 0.0
21/04:30pm 28.6 28.5 19.5 58 5.9 SE 19 24 10 13 - - 0.0
21/04:00pm 28.4 27.8 18.8 56 6.2 ESE 20 30 11 16 - - 0.0
21/03:30pm 28.3 27.2 18.7 56 6.2 SSE 22 30 12 16 - - 0.0
21/03:00pm 27.7 25.1 18.7 58 5.8 SE 30 37 16 20 - - 0.0
21/02:30pm 32.4 30.9 16.3 38 10.1 SSE 19 33 10 18 - - 0.0
21/02:27pm 32.7 30.5 14.3 32 11.2 SSE 19 33 10 18 - - 0.0
21/02:00pm 38.1 32.3 2.5 11 18.6 W 22 41 12 22 - - 0.0
21/01:30pm 38.0 31.2 1.1 10 18.9 WNW 26 43 14 23 - - 0.0
21/01:00pm 37.6 31.4 2.1 11 18.4 WNW 24 37 13 20 - - 0.0
21/12:30pm 36.8 32.0 4.9 14 17.2 NW 19 30 10 16 - - 0.0
21/12:00pm 35.1 32.2 10.9 23 14.2 WNW 17 24 9 13 - - 0.0
21/11:30am 31.1 31.5 18.1 46 8.4 SE 13 19 7 10 - - 0.0
21/11:00am 29.8 30.0 18.6 51 7.2 SE 15 20 8 11 - - 0.0
21/10:30am 28.8 28.5 17.3 49 7.2 SE 15 20 8 11 - - 0.0
21/10:00am 28.3 28.1 17.5 52 6.8 ESE 15 19 8 10 - - 0.0
21/09:30am 28.0 26.9 17.2 52 6.8 ESE 19 22 10 12 - - 0.0
21/09:00am 30.5 29.9 10.5 29 11.4 N 4 15 2 8 - - 0.0
21/08:30am 28.6 29.2 15.2 44 8.2 NNW 6 13 3 7 - - 0.0
21/08:00am 26.4 27.8 16.3 53 6.2 NW 4 7 2 4 - - 0.0
21/07:30am 24.6 27.5 18.1 67 4.1 CALM 0 6 0 3 - - 0.0
21/07:00am 21.8 24.3 17.2 75 2.8 CALM 0 0 0 0 - - 0.0
21/06:30am 22.5 24.4 16.8 70 3.5 NNE 2 7 1 4 - - 0.0
21/06:00am 22.6 23.0 16.4 68 3.8 N 9 13 5 7 - - 0.0
21/05:30am 23.3 24.1 16.4 65 4.2 N 7 13 4 7 - - 0.0
21/05:00am 23.0 22.9 16.1 65 4.2 WNW 11 17 6 9 - - 0.0
21/04:52am 22.2 22.2 17.1 73 3.1 NW 13 30 7 16 - - 0.0
21/04:30am 20.8 22.0 17.4 81 2.1 NW 7 11 4 6 - - 0.0
21/04:00am 20.7 22.4 17.1 80 2.2 N 4 9 2 5 - - 0.0
21/03:30am 21.0 23.1 17.2 79 2.3 NNW 2 7 1 4 - - 0.0
21/03:07am 20.5 21.4 17.5 83 1.8 W 9 17 5 9 - - 0.0
21/03:00am 20.0 22.7 18.7 92 0.8 NW 2 13 1 7 - - 0.0
21/02:52am 20.0 23.2 18.8 93 0.8 CALM 0 0 0 0 - - 0.0
21/02:30am 20.2 23.5 19.0 93 0.8 CALM 0 0 0 0 - - 0.0
21/02:00am 19.7 22.7 18.5 93 0.7 CALM 0 0 0 0 - - 0.0
21/01:30am 19.9 23.0 18.6 92 0.8 CALM 0 0 0 0 - - 0.0
21/01:00am 20.3 23.5 18.8 91 0.9 CALM 0 0 0 0 - - 0.0
21/12:49am 20.3 23.4 18.6 90 1.1 CALM 0 0 0 0 - - 0.0
21/12:35am 20.1 23.1 18.4 90 1.1 CALM 0 0 0 0 - - 0.0
21/12:30am 19.9 22.6 17.7 87 1.4 CALM 0 0 0 0 - - 0.0
21/12:00am 20.9 23.8 18.3 85 1.6 CALM 0 0 0 0 - - 0.0
 
Date/Time
EDT
Tmp

°C
App
Tmp
°C
Dew
Point
°C
Rel
Hum
%
Delta-T

°C
Wind Press
QNH
hPa
Press
MSL
hPa
Rain
since
9 am
mm
Dir
 
Spd
km/h
Gust
km/h
Spd
kts
Gust
kts
20/11:30pm 21.6 24.8 18.8 84 1.8 CALM 0 0 0 0 - - 0.0
20/11:00pm 22.5 24.9 18.7 79 2.4 E 4 7 2 4 - - 0.0
20/10:30pm 22.1 23.7 17.9 77 2.6 ENE 6 9 3 5 - - 0.0
20/10:00pm 23.1 26.1 18.4 75 3.0 CALM 0 0 0 0 - - 0.0
20/09:30pm 23.8 25.0 18.2 71 3.5 NNE 9 15 5 8 - - 0.0
20/09:00pm 24.7 25.2 17.4 64 4.5 NNE 11 19 6 10 - - 0.0
20/08:30pm 25.0 24.2 17.2 62 4.8 NNE 17 24 9 13 - - 0.0
20/08:00pm 25.4 25.0 17.1 60 5.2 NE 15 22 8 12 - - 0.0
20/07:30pm 25.6 25.0 17.5 61 5.1 NE 17 28 9 15 - - 0.0
20/07:00pm 25.8 24.7 17.4 59 5.2 NE 19 30 10 16 - - 0.0
20/06:30pm 25.9 24.2 17.3 59 5.4 NE 22 35 12 19 - - 0.0
20/06:00pm 26.9 25.0 17.7 57 5.8 NNE 24 39 13 21 - - 0.0
20/05:30pm 26.1 24.4 17.2 58 5.5 NE 22 37 12 20 - - 0.0
20/05:00pm 26.8 25.1 17.3 56 5.9 NNE 22 37 12 20 - - 0.0
20/04:30pm 27.4 25.9 17.6 55 6.2 ENE 22 33 12 18 - - 0.0
20/04:00pm 26.7 25.4 17.2 56 5.9 NE 20 32 11 17 - - 0.0
20/03:30pm 27.6 26.2 16.9 52 6.7 ENE 20 35 11 19 - - 0.0
20/03:00pm 28.7 27.2 17.6 51 7.0 ENE 22 32 12 17 - - 0.0
20/02:30pm 28.8 26.5 16.7 48 7.6 ENE 24 32 13 17 - - 0.0
20/02:00pm 29.7 28.6 17.8 48 7.6 E 20 26 11 14 - - 0.0
20/01:30pm 30.3 29.6 17.4 46 8.2 E 17 22 9 12 - - 0.0
20/01:00pm 30.0 30.5 18.4 49 7.5 E 13 20 7 11 - - 0.0
20/12:30pm 29.6 30.1 18.4 51 7.2 NE 13 20 7 11 - - 0.0
20/12:00pm 28.7 28.6 15.9 45 7.9 NNE 11 17 6 9 - - 0.0
20/11:30am 28.7 29.7 16.9 48 7.4 NW 7 17 4 9 - - 0.0
20/11:13am 27.8 28.1 17.0 51 6.8 NW 11 17 6 9 - - 0.0
20/11:00am 27.4 28.2 17.3 54 6.3 NNE 9 17 5 9 - - 0.0
20/10:55am 27.4 27.7 17.0 53 6.5 N 11 17 6 9 - - 0.0
20/10:30am 25.9 25.9 16.2 55 5.9 NNE 11 17 6 9 - - 0.0
20/10:00am 25.1 25.1 16.3 58 5.4 NNW 11 17 6 9 - - 0.0
20/09:30am 24.3 24.3 16.3 61 4.9 NE 11 15 6 8 - - 0.0
20/09:00am 23.0 23.6 15.8 64 4.3 NNW 7 13 4 7 - - 0.0
20/08:30am 22.7 23.0 16.0 66 4.0 N 9 17 5 9 - - 0.0
20/08:00am 22.1 22.4 16.1 69 3.6 NNW 9 13 5 7 - - 0.0
20/07:30am 20.9 21.3 16.3 75 2.8 N 9 13 5 7 - - 0.0
20/07:00am 19.4 21.0 16.8 85 1.6 N 4 7 2 4 - - 0.0
20/06:30am 17.3 19.5 16.5 95 0.5 CALM 0 0 0 0 - - 0.0
20/06:00am 16.5 18.3 15.5 94 0.6 CALM 0 0 0 0 - - 0.0
20/05:30am 16.6 18.3 15.3 92 0.8 CALM 0 0 0 0 - - 0.0
20/05:00am 16.8 18.5 15.2 90 0.9 CALM 0 0 0 0 - - 0.0
20/04:30am 17.4 19.2 15.4 88 1.2 CALM 0 0 0 0 - - 0.0
20/04:00am 17.8 19.4 14.9 83 1.7 CALM 0 0 0 0 - - 0.0
20/03:30am 19.3 21.4 16.2 82 1.9 CALM 0 0 0 0 - - 0.0
20/03:00am 19.9 20.8 16.2 79 2.2 WNW 6 7 3 4 - - 0.0
20/02:30am 20.1 22.3 16.5 80 2.2 CALM 0 0 0 0 - - 0.0
20/02:00am 20.0 22.2 16.4 80 2.2 CALM 0 0 0 0 - - 0.0
20/01:30am 20.0 22.2 16.6 81 2.1 CALM 0 0 0 0 - - 0.0
20/01:00am 20.1 22.3 16.5 80 2.2 CALM 0 0 0 0 - - 0.0
20/12:30am 20.1 22.2 16.3 79 2.3 CALM 0 6 0 3 - - 0.0
20/12:00am 20.3 22.1 16.5 79 2.3 N 2 6 1 3 - - 0.0
 
Date/Time
EDT
Tmp

°C
App
Tmp
°C
Dew
Point
°C
Rel
Hum
%
Delta-T

°C
Wind Press
QNH
hPa
Press
MSL
hPa
Rain
since
9 am
mm
Dir
 
Spd
km/h
Gust
km/h
Spd
kts
Gust
kts
19/11:30pm 20.3 21.2 16.5 79 2.3 N 7 11 4 6 - - 0.0
19/11:00pm 20.3 20.8 16.5 79 2.3 N 9 17 5 9 - - 0.0
19/10:30pm 20.0 19.6 16.2 79 2.3 N 13 22 7 12 - - 0.0
19/10:00pm 19.5 19.7 15.8 79 2.2 NNE 9 17 5 9 - - 0.0
19/09:30pm 19.5 18.8 15.4 77 2.4 NNE 13 22 7 12 - - 0.0

Latest Capital City Observations: Canberra | Sydney | Melbourne | Brisbane | Adelaide | Perth | Hobart | Darwin

Other Formats:

Comma delimited format used in spreadsheet applications
http://www.bom.gov.au/fwo/IDN60901/IDN60901.94766.axf

JavaScript Object Notation format (JSON) in row-major order
http://www.bom.gov.au/fwo/IDN60901/IDN60901.94766.json